createdAt,value
2023-04-27T00:00:14.690Z,56.72
2023-04-27T00:01:04.752Z,61.21
2023-04-27T00:01:54.822Z,59.40
2023-04-27T00:02:45.015Z,58.11
2023-04-27T00:03:35.014Z,57.82
2023-04-27T00:04:25.410Z,56.52
2023-04-27T00:05:15.495Z,55.72
2023-04-27T00:06:05.348Z,60.15
2023-04-27T00:06:55.347Z,53.64
2023-04-27T00:07:45.439Z,56.15
2023-04-27T00:08:35.498Z,58.38
2023-04-27T00:09:25.546Z,57.11
2023-04-27T00:10:15.550Z,58.22
2023-04-27T00:11:05.625Z,56.27
2023-04-27T00:11:55.677Z,53.20
2023-04-27T00:12:45.754Z,54.36
2023-04-27T00:13:36.045Z,51.67
2023-04-27T00:14:26.116Z,59.53
2023-04-27T00:15:16.195Z,57.36
2023-04-27T00:16:06.527Z,54.97
2023-04-27T00:16:56.507Z,58.05
2023-04-27T00:17:46.640Z,58.44
2023-04-27T00:18:36.642Z,59.59
2023-04-27T00:19:26.669Z,58.46
2023-04-27T00:20:16.728Z,63.10
2023-04-27T00:21:06.809Z,59.89
2023-04-27T00:21:56.849Z,61.52
2023-04-27T00:22:46.926Z,57.04
2023-04-27T00:23:37.025Z,60.20
2023-04-27T00:24:27.029Z,60.18
2023-04-27T00:25:17.229Z,51.00
2023-04-27T00:26:07.306Z,59.34
2023-04-27T00:26:57.349Z,58.03
2023-04-27T00:27:47.680Z,52.93
2023-04-27T00:28:37.774Z,56.80
2023-04-27T00:29:27.793Z,55.79
2023-04-27T00:30:18.106Z,59.21
2023-04-27T00:31:08.188Z,56.08
2023-04-27T00:31:58.289Z,56.45
2023-04-27T00:32:48.307Z,64.17
2023-04-27T00:33:38.382Z,56.50
2023-04-27T00:34:28.414Z,59.54
2023-04-27T00:35:18.446Z,55.49
2023-04-27T00:36:08.505Z,59.78
2023-04-27T00:36:58.567Z,56.89
2023-04-27T00:37:48.628Z,60.63
2023-04-27T00:38:38.717Z,61.35
2023-04-27T00:39:28.970Z,59.09
2023-04-27T00:40:19.009Z,58.88
2023-04-27T00:41:09.083Z,54.69
2023-04-27T00:41:59.395Z,60.94
2023-04-27T00:42:49.472Z,60.82
2023-04-27T00:43:39.553Z,60.06
2023-04-27T00:44:29.841Z,56.04
2023-04-27T00:45:19.898Z,57.97
2023-04-27T00:46:10.029Z,55.15
2023-04-27T00:47:00.308Z,56.94
2023-04-27T00:47:50.395Z,61.85
2023-04-27T00:48:40.457Z,63.28
2023-04-27T00:49:30.763Z,62.45
2023-04-27T00:50:20.813Z,59.69
2023-04-27T00:51:10.881Z,65.45
2023-04-27T00:52:01.165Z,65.67
2023-04-27T00:52:51.239Z,68.20
2023-04-27T00:53:41.288Z,62.58
2023-04-27T00:54:31.338Z,61.97
2023-04-27T00:55:21.395Z,62.40
2023-04-27T00:56:11.457Z,63.69
2023-04-27T00:57:01.527Z,61.90
2023-04-27T00:57:51.588Z,67.54
2023-04-27T00:58:41.680Z,67.18
2023-04-27T00:59:31.684Z,62.96
2023-04-27T01:00:21.750Z,68.11
2023-04-27T01:01:11.987Z,66.62
2023-04-27T01:02:02.007Z,68.24
2023-04-27T01:02:53.112Z,64.39
2023-04-27T01:03:42.266Z,65.65
2023-04-27T01:04:32.420Z,68.36
2023-04-27T01:05:22.219Z,69.13
2023-04-27T01:06:12.266Z,66.61
2023-04-27T01:07:02.333Z,65.41
2023-04-27T01:07:52.578Z,66.30
2023-04-27T01:08:42.671Z,69.44
2023-04-27T01:09:32.706Z,66.96
2023-04-27T01:10:23.050Z,64.52
2023-04-27T01:11:13.079Z,69.50
2023-04-27T01:12:03.151Z,69.79
2023-04-27T01:12:53.473Z,70.22
2023-04-27T01:13:43.544Z,69.00
2023-04-27T01:14:33.612Z,66.69
2023-04-27T01:15:23.918Z,65.22
2023-04-27T01:16:13.979Z,66.95
2023-04-27T01:17:04.136Z,68.42
2023-04-27T01:17:54.112Z,70.53
2023-04-27T01:18:44.154Z,68.55
2023-04-27T01:19:34.237Z,69.60
2023-04-27T01:20:24.256Z,75.12
2023-04-27T01:21:14.336Z,75.36
2023-04-27T01:22:04.452Z,74.08
2023-04-27T01:22:54.458Z,72.95
2023-04-27T01:23:44.540Z,71.10
2023-04-27T01:24:34.819Z,71.38
2023-04-27T01:25:24.873Z,72.33
2023-04-27T01:26:14.960Z,72.03
2023-04-27T01:27:05.263Z,78.13
2023-04-27T01:27:55.367Z,77.72
2023-04-27T01:28:45.409Z,75.69
2023-04-27T01:29:35.690Z,76.50
2023-04-27T01:30:25.753Z,77.46
2023-04-27T01:31:15.866Z,76.53
2023-04-27T01:32:06.121Z,75.55
2023-04-27T01:32:56.218Z,75.82
2023-04-27T01:33:46.241Z,75.49
2023-04-27T01:34:36.263Z,71.43
2023-04-27T01:35:28.209Z,74.11
2023-04-27T01:36:16.384Z,76.68
2023-04-27T01:37:06.445Z,74.97
2023-04-27T01:37:56.509Z,75.86
2023-04-27T01:38:46.570Z,74.86
2023-04-27T01:39:36.602Z,70.94
2023-04-27T01:40:26.791Z,76.87
2023-04-27T01:41:16.890Z,75.52
2023-04-27T01:42:06.923Z,73.66
2023-04-27T01:42:56.956Z,77.50
2023-04-27T01:43:47.034Z,75.36
2023-04-27T01:44:37.069Z,73.63
2023-04-27T01:45:27.130Z,76.08
2023-04-27T01:46:17.235Z,72.18
2023-04-27T01:47:07.279Z,76.20
2023-04-27T01:47:57.394Z,77.25
2023-04-27T01:48:47.400Z,77.59
2023-04-27T01:49:37.612Z,73.40
2023-04-27T01:50:27.634Z,76.31
2023-04-27T01:51:17.704Z,67.21
2023-04-27T01:52:07.794Z,71.89
2023-04-27T01:52:57.848Z,67.89
2023-04-27T01:53:47.896Z,70.55
2023-04-27T01:54:37.957Z,69.15
2023-04-27T01:55:28.028Z,65.42
2023-04-27T01:56:18.101Z,64.51
2023-04-27T01:57:08.167Z,63.81
2023-04-27T01:57:58.203Z,65.28
2023-04-27T01:58:48.432Z,55.89
2023-04-27T01:59:38.460Z,63.31
2023-04-27T02:00:28.512Z,57.94
2023-04-27T02:01:18.900Z,53.10
2023-04-27T02:02:09.012Z,52.94
2023-04-27T02:02:58.999Z,49.51
2023-04-27T02:03:49.187Z,46.93
2023-04-27T02:04:39.254Z,52.63
2023-04-27T02:05:29.117Z,55.76
2023-04-27T02:06:19.196Z,50.83
2023-04-27T02:07:09.241Z,50.65
2023-04-27T02:07:59.406Z,56.71
2023-04-27T02:08:49.479Z,53.50
2023-04-27T02:09:39.519Z,57.06
2023-04-27T02:10:29.826Z,52.37
2023-04-27T02:11:19.896Z,52.31
2023-04-27T02:12:09.961Z,52.57
2023-04-27T02:13:00.059Z,49.80
2023-04-27T02:13:50.115Z,49.84
2023-04-27T02:14:40.148Z,47.96
2023-04-27T02:15:30.213Z,43.45
2023-04-27T02:16:20.353Z,46.89
2023-04-27T02:17:10.389Z,46.89
2023-04-27T02:18:00.466Z,47.33
2023-04-27T02:18:50.466Z,45.26
2023-04-27T02:19:40.704Z,46.05
2023-04-27T02:20:30.770Z,49.27
2023-04-27T02:21:20.839Z,47.88
2023-04-27T02:22:11.111Z,44.80
2023-04-27T02:23:01.201Z,50.24
2023-04-27T02:23:51.235Z,45.31
2023-04-27T02:24:41.272Z,50.49
2023-04-27T02:25:31.291Z,52.45
2023-04-27T02:26:21.360Z,53.63
2023-04-27T02:27:11.419Z,50.09
2023-04-27T02:28:01.512Z,51.37
2023-04-27T02:28:51.591Z,47.97
2023-04-27T02:29:41.638Z,48.24
2023-04-27T02:30:31.681Z,48.32
2023-04-27T02:31:21.788Z,52.05
2023-04-27T02:32:11.819Z,49.41
2023-04-27T02:33:01.901Z,49.67
2023-04-27T02:33:51.925Z,50.92
2023-04-27T02:34:41.995Z,49.59
2023-04-27T02:35:32.056Z,53.33
2023-04-27T02:36:22.133Z,52.48
2023-04-27T02:37:12.197Z,54.58
2023-04-27T02:38:03.746Z,57.09
2023-04-27T02:38:52.448Z,55.74
2023-04-27T02:39:42.521Z,52.17
2023-04-27T02:40:32.848Z,54.51
2023-04-27T02:41:22.947Z,55.42
2023-04-27T02:42:12.971Z,59.21
2023-04-27T02:43:03.310Z,57.38
2023-04-27T02:43:53.404Z,59.88
2023-04-27T02:44:43.422Z,56.24
2023-04-27T02:45:33.440Z,52.96
2023-04-27T02:46:23.528Z,52.49
2023-04-27T02:47:13.577Z,49.49
2023-04-27T02:48:03.679Z,52.70
2023-04-27T02:48:53.718Z,54.30
2023-04-27T02:49:43.761Z,48.56
2023-04-27T02:50:33.776Z,55.03
2023-04-27T02:51:23.866Z,56.23
2023-04-27T02:52:14.167Z,54.66
2023-04-27T02:53:04.244Z,50.88
2023-04-27T02:53:54.284Z,55.80
2023-04-27T02:54:44.317Z,51.15
2023-04-27T02:55:34.343Z,56.71
2023-04-27T02:56:24.412Z,47.57
2023-04-27T02:57:14.478Z,58.26
2023-04-27T02:58:04.554Z,56.45
2023-04-27T02:58:54.628Z,56.33
2023-04-27T02:59:44.849Z,51.29
2023-04-27T03:00:34.733Z,55.89
2023-04-27T03:01:25.044Z,56.60
2023-04-27T03:02:15.044Z,57.60
2023-04-27T03:03:05.254Z,58.34
2023-04-27T03:03:55.347Z,58.27
2023-04-27T03:04:45.305Z,59.24
2023-04-27T03:05:35.281Z,53.90
2023-04-27T03:06:25.358Z,55.86
2023-04-27T03:07:15.377Z,56.17
2023-04-27T03:08:05.722Z,61.27
2023-04-27T03:08:55.818Z,60.58
2023-04-27T03:09:45.837Z,67.38
2023-04-27T03:10:36.170Z,62.65
2023-04-27T03:11:26.224Z,64.84
2023-04-27T03:12:16.264Z,66.22
2023-04-27T03:13:06.297Z,64.93
2023-04-27T03:13:56.347Z,63.88
2023-04-27T03:14:46.394Z,66.75
2023-04-27T03:15:36.468Z,66.00
2023-04-27T03:16:26.551Z,67.51
2023-04-27T03:17:16.558Z,65.68
2023-04-27T03:18:06.707Z,72.29
2023-04-27T03:18:56.693Z,72.53
2023-04-27T03:19:46.975Z,74.51
2023-04-27T03:20:37.046Z,71.79
2023-04-27T03:21:27.113Z,70.25
2023-04-27T03:22:17.398Z,71.34
2023-04-27T03:23:07.494Z,72.97
2023-04-27T03:23:57.540Z,70.14
2023-04-27T03:24:47.563Z,67.26
2023-04-27T03:25:37.635Z,67.64
2023-04-27T03:26:27.723Z,67.67
2023-04-27T03:27:17.778Z,66.95
2023-04-27T03:28:07.820Z,71.49
2023-04-27T03:28:57.874Z,67.79
2023-04-27T03:29:47.891Z,61.48
2023-04-27T03:30:37.955Z,68.15
2023-04-27T03:31:28.232Z,62.68
2023-04-27T03:32:18.266Z,66.16
2023-04-27T03:33:08.353Z,68.59
2023-04-27T03:33:58.637Z,67.23
2023-04-27T03:34:48.669Z,64.68
2023-04-27T03:35:38.728Z,60.48
2023-04-27T03:36:28.797Z,62.96
2023-04-27T03:37:18.877Z,63.90
2023-04-27T03:38:08.918Z,63.50
2023-04-27T03:38:59.010Z,58.77
2023-04-27T03:39:49.035Z,61.34
2023-04-27T03:40:39.061Z,63.27
2023-04-27T03:41:29.132Z,61.27
2023-04-27T03:42:19.194Z,58.12
2023-04-27T03:43:09.541Z,59.14
2023-04-27T03:43:59.580Z,63.37
2023-04-27T03:44:49.609Z,58.31
2023-04-27T03:45:39.739Z,58.71
2023-04-27T03:46:29.863Z,60.97
2023-04-27T03:47:19.766Z,60.48
2023-04-27T03:48:09.878Z,57.09
2023-04-27T03:48:59.944Z,58.99
2023-04-27T03:49:49.984Z,59.25
2023-04-27T03:50:40.053Z,53.77
2023-04-27T03:51:30.122Z,52.16
2023-04-27T03:52:20.406Z,53.38
2023-04-27T03:53:10.468Z,54.86
2023-04-27T03:54:00.551Z,55.95
2023-04-27T03:54:50.838Z,58.26
2023-04-27T03:55:40.946Z,60.58
2023-04-27T03:56:30.958Z,57.62
2023-04-27T03:57:21.320Z,58.96
2023-04-27T03:58:11.320Z,63.63
2023-04-27T03:59:01.406Z,59.93
2023-04-27T03:59:51.442Z,58.66
2023-04-27T04:00:41.470Z,61.77
2023-04-27T04:01:31.590Z,60.71
2023-04-27T04:02:21.818Z,61.06
2023-04-27T04:03:11.863Z,62.13
2023-04-27T04:04:01.814Z,60.94
2023-04-27T04:04:51.882Z,58.01
2023-04-27T04:05:41.814Z,59.15
2023-04-27T04:06:31.889Z,59.61
2023-04-27T04:07:21.940Z,62.86
2023-04-27T04:08:12.016Z,60.63
2023-04-27T04:09:02.094Z,57.88
2023-04-27T04:09:52.140Z,64.25
2023-04-27T04:10:42.203Z,60.56
2023-04-27T04:11:32.273Z,66.54
2023-04-27T04:12:22.299Z,65.55
2023-04-27T04:13:12.592Z,63.98
2023-04-27T04:14:02.637Z,65.55
2023-04-27T04:14:52.674Z,65.03
2023-04-27T04:15:42.773Z,67.72
2023-04-27T04:16:32.811Z,65.25
2023-04-27T04:17:22.835Z,67.46
2023-04-27T04:18:13.048Z,70.71
2023-04-27T04:19:02.953Z,68.76
2023-04-27T04:19:53.022Z,67.87
2023-04-27T04:20:43.087Z,77.12
2023-04-27T04:21:33.171Z,76.18
2023-04-27T04:22:23.188Z,73.31
2023-04-27T04:23:13.278Z,75.16
2023-04-27T04:24:03.364Z,74.46
2023-04-27T04:24:53.382Z,76.30
2023-04-27T04:25:43.448Z,76.28
2023-04-27T04:26:33.552Z,75.69
2023-04-27T04:27:23.568Z,76.95
2023-04-27T04:28:13.600Z,75.29
2023-04-27T04:29:03.948Z,74.59
2023-04-27T04:29:53.985Z,71.54
2023-04-27T04:30:44.047Z,67.85
2023-04-27T04:31:34.120Z,67.40
2023-04-27T04:32:24.163Z,67.50
2023-04-27T04:33:14.184Z,70.62
2023-04-27T04:34:04.249Z,68.20
2023-04-27T04:34:54.294Z,70.66
2023-04-27T04:35:44.335Z,71.22
2023-04-27T04:36:34.408Z,69.57
2023-04-27T04:37:24.744Z,72.64
2023-04-27T04:38:14.768Z,71.57
2023-04-27T04:39:04.868Z,72.96
2023-04-27T04:39:54.892Z,74.56
2023-04-27T04:40:46.115Z,70.40
2023-04-27T04:41:34.992Z,78.24
2023-04-27T04:42:25.072Z,74.17
2023-04-27T04:43:15.142Z,74.20
2023-04-27T04:44:05.247Z,76.62
2023-04-27T04:44:55.263Z,76.21
2023-04-27T04:45:45.325Z,75.33
2023-04-27T04:46:35.419Z,76.69
2023-04-27T04:47:25.565Z,76.64
2023-04-27T04:48:15.488Z,73.02
2023-04-27T04:49:05.545Z,74.25
2023-04-27T04:49:55.592Z,72.91
2023-04-27T04:50:45.670Z,64.43
2023-04-27T04:51:35.933Z,65.98
2023-04-27T04:52:26.012Z,64.11
2023-04-27T04:53:16.076Z,68.08
2023-04-27T04:54:06.181Z,71.17
2023-04-27T04:54:56.211Z,71.24
2023-04-27T04:55:46.286Z,71.73
2023-04-27T04:56:36.323Z,66.40
2023-04-27T04:57:26.397Z,68.08
2023-04-27T04:58:16.460Z,70.94
2023-04-27T04:59:06.563Z,72.60
2023-04-27T04:59:56.587Z,72.09
2023-04-27T05:00:46.622Z,67.89
2023-04-27T05:01:36.715Z,60.91
2023-04-27T05:02:26.833Z,65.59
2023-04-27T05:03:16.926Z,66.84
2023-04-27T05:04:07.167Z,64.28
2023-04-27T05:04:56.969Z,68.93
2023-04-27T05:05:46.940Z,68.60
2023-04-27T05:06:37.000Z,70.38
2023-04-27T05:07:27.064Z,72.94
2023-04-27T05:08:17.134Z,72.32
2023-04-27T05:09:07.179Z,71.19
2023-04-27T05:09:57.234Z,66.77
2023-04-27T05:10:47.245Z,63.87
2023-04-27T05:11:37.328Z,63.13
2023-04-27T05:12:27.367Z,68.18
2023-04-27T05:13:17.449Z,64.92
2023-04-27T05:14:07.756Z,66.33
2023-04-27T05:14:57.789Z,64.02
2023-04-27T05:15:47.879Z,66.41
2023-04-27T05:16:37.943Z,66.75
2023-04-27T05:17:27.967Z,67.45
2023-04-27T05:18:18.028Z,69.26
2023-04-27T05:19:08.084Z,61.66
2023-04-27T05:19:58.136Z,67.88
2023-04-27T05:20:48.163Z,73.96
2023-04-27T05:21:38.256Z,67.91
2023-04-27T05:22:28.308Z,68.22
2023-04-27T05:23:18.589Z,70.08
2023-04-27T05:24:08.678Z,67.85
2023-04-27T05:24:58.718Z,67.30
2023-04-27T05:25:48.758Z,67.90
2023-04-27T05:26:38.791Z,68.28
2023-04-27T05:27:28.817Z,69.77
2023-04-27T05:28:18.895Z,69.86
2023-04-27T05:29:08.953Z,64.83
2023-04-27T05:29:59.030Z,73.09
2023-04-27T05:30:49.077Z,68.87
2023-04-27T05:31:39.121Z,72.78
2023-04-27T05:32:29.239Z,69.25
2023-04-27T05:33:19.234Z,71.59
2023-04-27T05:34:09.279Z,72.63
2023-04-27T05:34:59.298Z,71.79
2023-04-27T05:35:49.351Z,70.05
2023-04-27T05:36:39.429Z,71.89
2023-04-27T05:37:29.510Z,70.09
2023-04-27T05:38:19.571Z,70.43
2023-04-27T05:39:09.596Z,71.82
2023-04-27T05:39:59.674Z,71.86
2023-04-27T05:40:49.773Z,70.17
2023-04-27T05:41:39.777Z,72.20
2023-04-27T05:42:29.849Z,72.16
2023-04-27T05:43:19.915Z,73.53
2023-04-27T05:44:09.979Z,71.77
2023-04-27T05:45:00.057Z,76.22
2023-04-27T05:45:50.124Z,71.52
2023-04-27T05:46:40.314Z,74.64
2023-04-27T05:47:30.360Z,68.98
2023-04-27T05:48:20.428Z,67.88
2023-04-27T05:49:10.451Z,77.13
2023-04-27T05:50:00.553Z,71.56
2023-04-27T05:50:50.581Z,76.10
2023-04-27T05:51:40.618Z,69.86
2023-04-27T05:52:30.648Z,68.04
2023-04-27T05:53:20.752Z,72.93
2023-04-27T05:54:10.767Z,68.82
2023-04-27T05:55:00.841Z,71.40
2023-04-27T05:55:51.130Z,71.51
2023-04-27T05:56:41.218Z,73.11
2023-04-27T05:57:31.276Z,72.45
2023-04-27T05:58:21.570Z,72.57
2023-04-27T05:59:11.904Z,68.49
2023-04-27T06:00:01.694Z,68.47
2023-04-27T06:00:51.695Z,66.97
2023-04-27T06:01:41.764Z,70.36
2023-04-27T06:02:31.937Z,69.46
2023-04-27T06:03:22.054Z,68.62
2023-04-27T06:04:12.027Z,68.79
2023-04-27T06:05:02.091Z,70.59
2023-04-27T06:05:52.041Z,63.42
2023-04-27T06:06:42.094Z,66.91
2023-04-27T06:07:32.161Z,66.00
2023-04-27T06:08:22.187Z,63.29
2023-04-27T06:09:12.476Z,64.69
2023-04-27T06:10:02.321Z,67.50
2023-04-27T06:10:52.358Z,65.09
2023-04-27T06:11:42.437Z,62.82
2023-04-27T06:12:32.458Z,64.38
2023-04-27T06:13:22.510Z,69.57
2023-04-27T06:14:12.550Z,68.05
2023-04-27T06:15:02.636Z,59.23
2023-04-27T06:15:52.720Z,57.96
2023-04-27T06:16:42.745Z,65.43
2023-04-27T06:17:32.794Z,65.29
2023-04-27T06:18:22.824Z,62.38
2023-04-27T06:19:13.019Z,67.35
2023-04-27T06:20:02.954Z,58.76
2023-04-27T06:20:52.975Z,60.16
2023-04-27T06:21:43.020Z,55.17
2023-04-27T06:22:33.053Z,59.86
2023-04-27T06:23:23.385Z,57.28
2023-04-27T06:24:13.456Z,57.96
2023-04-27T06:25:03.584Z,52.29
2023-04-27T06:25:53.594Z,53.45
2023-04-27T06:26:43.634Z,50.98
2023-04-27T06:27:33.657Z,52.22
2023-04-27T06:28:23.724Z,49.09
2023-04-27T06:29:13.953Z,47.48
2023-04-27T06:30:03.910Z,57.60
2023-04-27T06:30:53.949Z,55.63
2023-04-27T06:31:44.042Z,56.20
2023-04-27T06:32:34.324Z,57.46
2023-04-27T06:33:24.394Z,54.90
2023-04-27T06:34:14.426Z,55.39
2023-04-27T06:35:04.509Z,55.27
2023-04-27T06:35:54.531Z,50.23
2023-04-27T06:36:44.604Z,52.58
2023-04-27T06:37:34.674Z,53.05
2023-04-27T06:38:24.751Z,52.35
2023-04-27T06:39:15.116Z,51.09
2023-04-27T06:40:04.922Z,57.37
2023-04-27T06:40:55.072Z,49.22
2023-04-27T06:41:45.199Z,53.37
2023-04-27T06:42:35.219Z,56.35
2023-04-27T06:43:25.323Z,61.15
2023-04-27T06:44:15.317Z,58.56
2023-04-27T06:45:05.398Z,57.15
2023-04-27T06:45:55.456Z,57.77
2023-04-27T06:46:45.494Z,49.54
2023-04-27T06:47:35.561Z,47.10
2023-04-27T06:48:25.728Z,53.14
2023-04-27T06:49:16.015Z,49.55
2023-04-27T06:50:05.774Z,49.48
2023-04-27T06:50:56.054Z,49.68
2023-04-27T06:51:46.136Z,43.59
2023-04-27T06:52:36.161Z,49.35
2023-04-27T06:53:26.251Z,50.49
2023-04-27T06:54:16.273Z,47.84
2023-04-27T06:55:06.332Z,52.86
2023-04-27T06:55:56.364Z,47.71
2023-04-27T06:56:46.461Z,46.13
2023-04-27T06:57:36.498Z,55.30
2023-04-27T06:58:26.575Z,53.68
2023-04-27T06:59:16.602Z,54.75
2023-04-27T07:00:06.693Z,47.80
2023-04-27T07:00:56.734Z,45.24
2023-04-27T07:01:46.822Z,47.71
2023-04-27T07:02:37.038Z,49.64
2023-04-27T07:03:27.006Z,45.18
2023-04-27T07:04:17.060Z,49.06
2023-04-27T07:05:07.033Z,43.05
2023-04-27T07:05:57.044Z,42.85
2023-04-27T07:06:47.134Z,43.80
2023-04-27T07:07:37.151Z,43.31
2023-04-27T07:08:27.201Z,47.67
2023-04-27T07:09:26.920Z,45.70
2023-04-27T07:10:08.304Z,45.74
2023-04-27T07:10:57.339Z,45.87
2023-04-27T07:11:47.411Z,41.55
2023-04-27T07:12:37.501Z,46.29
2023-04-27T07:13:27.535Z,47.15
2023-04-27T07:14:17.613Z,43.03
2023-04-27T07:15:07.664Z,45.36
2023-04-27T07:15:58.182Z,36.05
2023-04-27T07:16:47.950Z,36.67
2023-04-27T07:17:38.057Z,41.48
2023-04-27T07:18:28.305Z,37.45
2023-04-27T07:19:18.392Z,41.63
2023-04-27T07:20:08.444Z,43.11
2023-04-27T07:20:58.734Z,49.47
2023-04-27T07:21:48.868Z,43.53
2023-04-27T07:22:38.860Z,47.10
2023-04-27T07:23:29.177Z,53.68
2023-04-27T07:24:19.256Z,49.83
2023-04-27T07:25:09.290Z,50.54
2023-04-27T07:25:59.641Z,49.20
2023-04-27T07:26:49.674Z,50.40
2023-04-27T07:27:39.788Z,43.38
2023-04-27T07:28:30.072Z,46.04
2023-04-27T07:29:27.049Z,43.73
2023-04-27T07:30:11.213Z,43.77
2023-04-27T07:31:00.264Z,42.80
2023-04-27T07:31:52.223Z,43.72
2023-04-27T07:32:40.385Z,43.83
2023-04-27T07:33:30.367Z,44.59
2023-04-27T07:34:20.429Z,44.10
2023-04-27T07:35:10.502Z,43.87
2023-04-27T07:36:00.577Z,42.84
2023-04-27T07:36:50.688Z,44.85
2023-04-27T07:37:40.764Z,40.71
2023-04-27T07:38:30.794Z,39.70
2023-04-27T07:39:20.875Z,41.56
2023-04-27T07:40:10.930Z,42.34
2023-04-27T07:41:01.082Z,45.20
2023-04-27T07:41:51.083Z,43.66
2023-04-27T07:42:41.130Z,46.06
2023-04-27T07:43:31.179Z,45.96
2023-04-27T07:44:21.205Z,42.84
2023-04-27T07:45:11.250Z,42.65
2023-04-27T07:46:01.358Z,41.54
2023-04-27T07:46:51.354Z,46.61
2023-04-27T07:47:41.439Z,42.54
2023-04-27T07:48:31.476Z,42.80
2023-04-27T07:49:21.538Z,40.54
2023-04-27T07:50:11.612Z,39.61
2023-04-27T07:51:01.709Z,44.03
2023-04-27T07:51:51.729Z,37.53
2023-04-27T07:52:42.047Z,32.48
2023-04-27T07:53:32.052Z,33.28
2023-04-27T07:54:22.135Z,40.84
2023-04-27T07:55:12.449Z,40.73
2023-04-27T07:56:02.519Z,37.74
2023-04-27T07:56:52.537Z,42.09
2023-04-27T07:57:42.616Z,40.49
2023-04-27T07:58:32.645Z,43.78
2023-04-27T07:59:22.739Z,35.57
2023-04-27T08:00:12.786Z,40.75
2023-04-27T08:01:02.857Z,43.64
2023-04-27T08:01:55.671Z,47.21
2023-04-27T08:02:43.240Z,43.11
2023-04-27T08:03:33.256Z,35.19
2023-04-27T08:04:23.489Z,41.01
2023-04-27T08:05:13.660Z,41.04
2023-04-27T08:06:03.756Z,43.91
2023-04-27T08:06:54.045Z,47.21
2023-04-27T08:07:45.436Z,46.07
2023-04-27T08:08:33.467Z,41.98
2023-04-27T08:09:23.534Z,36.13
2023-04-27T08:10:13.656Z,42.14
2023-04-27T08:11:03.748Z,37.45
2023-04-27T08:11:53.769Z,43.58
2023-04-27T08:12:44.099Z,40.46
2023-04-27T08:13:34.128Z,43.97
2023-04-27T08:14:24.179Z,44.66
2023-04-27T08:15:14.330Z,48.53
2023-04-27T08:16:04.295Z,48.26
2023-04-27T08:16:54.352Z,49.45
2023-04-27T08:17:44.446Z,49.15
2023-04-27T08:18:34.454Z,56.77
2023-04-27T08:19:24.526Z,48.98
2023-04-27T08:20:14.533Z,49.89
2023-04-27T08:21:04.609Z,47.17
2023-04-27T08:21:54.640Z,49.26
2023-04-27T08:22:44.749Z,46.40
2023-04-27T08:23:34.791Z,47.53
2023-04-27T08:24:24.860Z,52.99
2023-04-27T08:25:14.910Z,52.30
2023-04-27T08:26:05.003Z,49.41
2023-04-27T08:26:55.024Z,49.73
2023-04-27T08:27:45.093Z,44.73
2023-04-27T08:28:35.370Z,44.88
2023-04-27T08:29:28.546Z,48.97
2023-04-27T08:30:15.513Z,44.97
2023-04-27T08:31:05.772Z,43.96
2023-04-27T08:31:56.873Z,42.86
2023-04-27T08:32:45.768Z,45.20
2023-04-27T08:33:35.782Z,46.64
2023-04-27T08:34:25.901Z,52.03
2023-04-27T08:35:16.101Z,56.28
2023-04-27T08:36:06.199Z,53.15
2023-04-27T08:36:56.211Z,57.86
2023-04-27T08:37:46.566Z,60.42
2023-04-27T08:38:36.618Z,58.73
2023-04-27T08:39:26.698Z,54.00
2023-04-27T08:40:17.856Z,52.86
2023-04-27T08:41:18.332Z,50.54
2023-04-27T08:41:58.096Z,47.29
2023-04-27T08:42:47.183Z,50.13
2023-04-27T08:43:37.209Z,45.69
2023-04-27T08:44:27.280Z,43.99
2023-04-27T08:45:17.340Z,48.07
2023-04-27T08:46:07.446Z,45.63
2023-04-27T08:46:57.495Z,38.28
2023-04-27T08:47:47.631Z,44.77
2023-04-27T08:48:37.664Z,41.58
2023-04-27T08:49:27.714Z,41.80
2023-04-27T08:50:17.739Z,38.05
2023-04-27T08:51:07.859Z,38.75
2023-04-27T08:51:57.839Z,41.92
2023-04-27T08:52:47.922Z,38.75
2023-04-27T08:53:37.982Z,35.73
2023-04-27T08:54:28.056Z,37.83
2023-04-27T08:55:18.127Z,42.33
2023-04-27T08:56:08.214Z,39.31
2023-04-27T08:56:58.452Z,44.10
2023-04-27T08:57:48.527Z,37.65
2023-04-27T08:58:38.544Z,51.18
2023-04-27T08:59:28.624Z,55.46
2023-04-27T09:00:18.669Z,57.44
2023-04-27T09:01:08.769Z,51.90
2023-04-27T09:01:58.820Z,57.15
2023-04-27T09:02:49.078Z,47.20
2023-04-27T09:03:39.050Z,51.40
2023-04-27T09:04:29.103Z,52.15
2023-04-27T09:05:19.027Z,44.03
2023-04-27T09:06:09.079Z,45.59
2023-04-27T09:06:59.084Z,47.27
2023-04-27T09:07:49.160Z,41.43
2023-04-27T09:08:39.201Z,38.63
2023-04-27T09:09:29.284Z,38.25
2023-04-27T09:10:19.316Z,42.53
2023-04-27T09:11:09.402Z,36.08
2023-04-27T09:11:59.449Z,38.85
2023-04-27T09:12:49.501Z,37.71
2023-04-27T09:13:39.534Z,37.56
2023-04-27T09:14:29.608Z,40.32
2023-04-27T09:15:19.632Z,39.42
2023-04-27T09:16:09.789Z,38.97
2023-04-27T09:16:59.862Z,37.18
2023-04-27T09:17:49.931Z,38.11
2023-04-27T09:18:39.863Z,37.54
2023-04-27T09:19:29.977Z,36.77
2023-04-27T09:20:20.070Z,37.82
2023-04-27T09:21:10.130Z,30.90
2023-04-27T09:22:00.179Z,25.00
2023-04-27T09:22:50.242Z,29.41
2023-04-27T09:23:40.267Z,26.93
2023-04-27T09:24:30.327Z,30.43
2023-04-27T09:25:20.393Z,25.57
2023-04-27T09:26:10.496Z,25.00
2023-04-27T09:27:01.088Z,32.94
2023-04-27T09:27:50.581Z,30.18
2023-04-27T09:28:40.652Z,25.38
2023-04-27T09:29:30.717Z,29.52
2023-04-27T09:30:20.821Z,30.35
2023-04-27T09:31:10.953Z,32.82
2023-04-27T09:32:00.979Z,31.12
2023-04-27T09:32:51.012Z,26.74
2023-04-27T09:33:40.989Z,31.52
2023-04-27T09:34:31.874Z,35.02
2023-04-27T09:35:21.355Z,38.36
2023-04-27T09:36:11.423Z,35.84
2023-04-27T09:37:01.454Z,35.48
2023-04-27T09:37:51.504Z,32.62
2023-04-27T09:38:41.541Z,35.59
2023-04-27T09:39:31.636Z,37.67
2023-04-27T09:40:21.639Z,38.57
2023-04-27T09:41:11.764Z,36.97
2023-04-27T09:42:01.766Z,28.08
2023-04-27T09:42:51.844Z,35.21
2023-04-27T09:43:41.877Z,33.20
2023-04-27T09:44:31.916Z,30.87
2023-04-27T09:45:21.940Z,27.36
2023-04-27T09:46:12.089Z,31.71
2023-04-27T09:47:02.074Z,26.92
2023-04-27T09:47:52.147Z,32.84
2023-04-27T09:48:42.177Z,34.46
2023-04-27T09:49:32.423Z,43.85
2023-04-27T09:50:22.307Z,42.07
2023-04-27T09:51:12.409Z,37.93
2023-04-27T09:52:02.450Z,37.24
2023-04-27T09:52:52.488Z,41.51
2023-04-27T09:53:42.567Z,35.57
2023-04-27T09:54:32.578Z,37.46
2023-04-27T09:55:22.611Z,33.46
2023-04-27T09:56:12.660Z,34.32
2023-04-27T09:57:02.703Z,39.39
2023-04-27T09:57:52.771Z,37.78
2023-04-27T09:58:42.800Z,37.11
2023-04-27T09:59:32.847Z,40.70
2023-04-27T10:00:22.906Z,41.08
2023-04-27T10:01:12.942Z,48.36
2023-04-27T10:02:13.310Z,44.04
2023-04-27T10:02:53.964Z,44.12
2023-04-27T10:03:43.181Z,44.28
2023-04-27T10:04:33.279Z,46.84
2023-04-27T10:05:23.282Z,50.17
2023-04-27T10:06:13.305Z,52.93
2023-04-27T10:07:03.347Z,61.80
2023-04-27T10:07:53.435Z,62.93
2023-04-27T10:08:43.732Z,53.70
2023-04-27T10:09:33.799Z,59.91
2023-04-27T10:10:23.876Z,60.00
2023-04-27T10:11:14.173Z,64.12
2023-04-27T10:12:04.207Z,60.01
2023-04-27T10:12:54.269Z,58.59
2023-04-27T10:13:44.345Z,51.05
2023-04-27T10:14:34.373Z,49.22
2023-04-27T10:15:24.422Z,53.89
2023-04-27T10:16:14.497Z,53.44
2023-04-27T10:17:04.618Z,52.50
2023-04-27T10:17:54.597Z,58.42
2023-04-27T10:18:44.648Z,63.91
2023-04-27T10:19:34.715Z,52.68
2023-04-27T10:20:25.067Z,43.46
2023-04-27T10:21:15.130Z,38.77
2023-04-27T10:22:05.157Z,42.94
2023-04-27T10:22:55.492Z,42.79
2023-04-27T10:23:45.570Z,56.53
2023-04-27T10:24:35.591Z,57.95
2023-04-27T10:25:25.678Z,46.49
2023-04-27T10:26:15.765Z,50.24
2023-04-27T10:27:05.804Z,46.39
2023-04-27T10:27:55.861Z,43.80
2023-04-27T10:28:45.930Z,52.49
2023-04-27T10:29:36.005Z,53.85
2023-04-27T10:30:26.092Z,57.64
2023-04-27T10:31:16.235Z,52.91
2023-04-27T10:32:06.327Z,52.55
2023-04-27T10:32:56.456Z,52.58
2023-04-27T10:33:46.448Z,41.92
2023-04-27T10:34:36.478Z,54.50
2023-04-27T10:35:26.560Z,62.32
2023-04-27T10:36:16.662Z,59.40
2023-04-27T10:37:06.667Z,63.46
2023-04-27T10:37:56.773Z,69.01
2023-04-27T10:38:46.848Z,66.15
2023-04-27T10:39:47.109Z,61.46
2023-04-27T10:40:27.917Z,61.46
2023-04-27T10:41:17.002Z,61.18
2023-04-27T10:42:07.002Z,58.49
2023-04-27T10:42:57.093Z,60.11
2023-04-27T10:43:47.142Z,49.25
2023-04-27T10:44:37.214Z,49.99